createdAt,value
2022-11-02T00:00:28.643Z,78.15
2022-11-02T00:02:58.089Z,79.42
2022-11-02T00:05:28.633Z,81.59
2022-11-02T00:07:56.646Z,82.14
2022-11-02T00:10:25.919Z,81.55
2022-11-02T00:12:54.065Z,80.79
2022-11-02T00:15:22.316Z,80.84
2022-11-02T00:17:54.160Z,80.43
2022-11-02T00:20:24.246Z,80.39
2022-11-02T00:22:54.241Z,79.92
2022-11-02T00:25:24.755Z,79.15
2022-11-02T00:27:53.057Z,77.99
2022-11-02T00:30:20.931Z,81.49
2022-11-02T00:32:48.700Z,81.04
2022-11-02T00:35:16.852Z,82.83
2022-11-02T00:37:45.937Z,81.90
2022-11-02T00:40:13.918Z,80.07
2022-11-02T00:42:41.722Z,79.94
2022-11-02T00:45:10.751Z,80.95
2022-11-02T00:47:38.907Z,82.20
2022-11-02T00:50:07.883Z,82.41
2022-11-02T00:52:39.774Z,83.49
2022-11-02T00:55:11.333Z,82.73
2022-11-02T00:57:43.018Z,82.27
2022-11-02T01:00:12.219Z,81.19
2022-11-02T01:02:40.317Z,81.07
2022-11-02T01:05:10.124Z,80.42
2022-11-02T01:07:37.965Z,82.11
2022-11-02T01:10:07.178Z,82.39
2022-11-02T01:12:37.638Z,81.64
2022-11-02T01:15:06.690Z,80.02
2022-11-02T01:17:34.588Z,82.26
2022-11-02T01:20:06.318Z,82.65
2022-11-02T01:22:34.030Z,86.32
2022-11-02T01:25:04.206Z,85.35
2022-11-02T01:27:32.048Z,85.51
2022-11-02T01:30:03.774Z,84.02
2022-11-02T01:32:31.758Z,83.05
2022-11-02T01:35:02.698Z,82.84
2022-11-02T01:37:30.435Z,83.17
2022-11-02T01:39:58.198Z,82.68
2022-11-02T01:42:27.941Z,82.58
2022-11-02T01:44:57.433Z,83.51
2022-11-02T01:47:29.376Z,83.24
2022-11-02T01:50:01.700Z,81.79
2022-11-02T01:52:34.201Z,83.47
2022-11-02T01:55:07.972Z,83.24
2022-11-02T01:57:37.719Z,83.18
2022-11-02T02:00:08.890Z,84.02
2022-11-02T02:02:50.416Z,83.71
2022-11-02T02:05:23.020Z,83.46
2022-11-02T02:07:53.113Z,85.05
2022-11-02T02:10:21.179Z,84.94
2022-11-02T02:12:50.002Z,84.73
2022-11-02T02:15:23.856Z,84.15
2022-11-02T02:18:01.350Z,85.78
2022-11-02T02:20:46.698Z,91.29
2022-11-02T02:23:34.922Z,91.67
2022-11-02T02:26:34.169Z,91.46
2022-11-02T02:29:12.166Z,90.16
2022-11-02T02:31:47.079Z,87.35
2022-11-02T02:34:20.004Z,88.40
2022-11-02T02:36:52.012Z,88.09
2022-11-02T02:39:25.377Z,87.85
2022-11-02T02:41:59.825Z,85.96
2022-11-02T02:44:35.498Z,84.64
2022-11-02T02:47:07.244Z,83.74
2022-11-02T02:49:41.569Z,83.78
2022-11-02T02:52:10.804Z,83.39
2022-11-02T02:54:41.937Z,83.28
2022-11-02T02:57:12.707Z,82.77
2022-11-02T02:59:43.574Z,82.56
2022-11-02T03:02:18.374Z,83.69
2022-11-02T03:04:46.505Z,85.91
2022-11-02T03:07:20.700Z,87.85
2022-11-02T03:09:58.172Z,90.52
2022-11-02T03:12:38.860Z,92.08
2022-11-02T03:15:14.965Z,93.45
2022-11-02T03:17:50.461Z,93.25
2022-11-02T03:20:26.686Z,91.50
2022-11-02T03:23:07.865Z,89.44
2022-11-02T03:25:43.172Z,89.36
2022-11-02T03:28:18.409Z,86.37
2022-11-02T03:30:54.016Z,86.25
2022-11-02T03:33:30.432Z,85.33
2022-11-02T03:36:07.411Z,86.78
2022-11-02T03:38:42.565Z,88.78
2022-11-02T03:41:12.358Z,88.36
2022-11-02T03:43:42.912Z,87.65
2022-11-02T03:46:14.487Z,87.86
2022-11-02T03:48:46.124Z,89.36
2022-11-02T03:51:19.100Z,87.95
2022-11-02T03:53:51.837Z,90.06
2022-11-02T03:56:25.816Z,89.63
2022-11-02T03:58:54.459Z,90.19
2022-11-02T04:01:24.107Z,88.15
2022-11-02T04:03:52.775Z,90.02
2022-11-02T04:06:20.715Z,88.36
2022-11-02T04:08:50.565Z,88.87
2022-11-02T04:11:38.422Z,90.22
2022-11-02T04:14:28.018Z,89.57
2022-11-02T04:17:12.723Z,91.72
2022-11-02T04:19:48.669Z,90.89
2022-11-02T04:22:35.736Z,91.94
2022-11-02T04:25:18.705Z,91.92
2022-11-02T04:28:10.540Z,92.09
2022-11-02T04:31:07.260Z,90.67
2022-11-02T04:33:40.624Z,87.82
2022-11-02T04:36:19.292Z,86.99
2022-11-02T04:38:51.758Z,85.17
2022-11-02T04:41:44.877Z,86.95
2022-11-02T04:44:18.448Z,86.71
2022-11-02T04:46:59.539Z,91.05
2022-11-02T04:49:32.753Z,94.26
2022-11-02T04:52:00.658Z,94.76
2022-11-02T04:54:31.999Z,95.30
2022-11-02T04:57:03.303Z,94.02
2022-11-02T04:59:32.929Z,95.22
2022-11-02T05:02:00.697Z,94.68
2022-11-02T05:04:29.174Z,94.67
2022-11-02T05:07:01.599Z,95.83
2022-11-02T05:09:31.893Z,90.84
2022-11-02T05:12:01.708Z,92.13
2022-11-02T05:14:29.670Z,93.60
2022-11-02T05:16:58.811Z,92.25
2022-11-02T05:19:26.937Z,91.53
2022-11-02T05:21:55.345Z,91.75
2022-11-02T05:24:26.529Z,93.48
2022-11-02T05:26:54.515Z,92.15
2022-11-02T05:29:25.327Z,93.84
2022-11-02T05:31:53.754Z,94.77
2022-11-02T05:34:22.070Z,94.82
2022-11-02T05:36:50.833Z,94.38
2022-11-02T05:39:18.696Z,93.92
2022-11-02T05:41:50.299Z,93.81
2022-11-02T05:44:18.222Z,92.19
2022-11-02T05:46:46.402Z,89.31
2022-11-02T05:49:14.173Z,90.99
2022-11-02T05:51:41.986Z,87.87
2022-11-02T05:54:09.699Z,87.71
2022-11-02T05:56:37.697Z,87.40
2022-11-02T05:59:09.212Z,87.24
2022-11-02T06:01:37.203Z,89.58
2022-11-02T06:04:05.430Z,88.64
2022-11-02T06:06:33.230Z,89.38
2022-11-02T06:09:06.741Z,90.59
2022-11-02T06:11:34.995Z,89.00
2022-11-02T06:14:03.638Z,87.14
2022-11-02T06:16:32.889Z,85.51
2022-11-02T06:19:00.826Z,85.01
2022-11-02T06:21:28.917Z,84.35
2022-11-02T06:23:58.850Z,83.43
2022-11-02T06:26:26.638Z,82.84
2022-11-02T06:28:56.487Z,82.73
2022-11-02T06:31:24.432Z,82.88
2022-11-02T06:33:53.526Z,81.99
2022-11-02T06:36:21.561Z,81.56
2022-11-02T06:38:52.189Z,82.07
2022-11-02T06:41:19.900Z,81.69
2022-11-02T06:43:47.682Z,81.71
2022-11-02T06:46:15.544Z,82.19
2022-11-02T06:48:43.441Z,82.03
2022-11-02T06:51:12.604Z,83.29
2022-11-02T06:53:42.849Z,82.30
2022-11-02T06:56:12.304Z,82.56
2022-11-02T06:58:39.997Z,81.38
2022-11-02T07:01:09.766Z,81.25
2022-11-02T07:03:37.747Z,84.11
2022-11-02T07:06:09.792Z,84.67
2022-11-02T07:08:42.383Z,84.01
2022-11-02T07:11:14.149Z,83.25
2022-11-02T07:13:44.776Z,82.49
2022-11-02T07:16:12.850Z,83.27
2022-11-02T07:18:41.566Z,82.27
2022-11-02T07:21:11.368Z,82.89
2022-11-02T07:23:39.224Z,82.43
2022-11-02T07:26:08.363Z,82.32
2022-11-02T07:28:38.121Z,82.48
2022-11-02T07:31:06.401Z,82.54
2022-11-02T07:33:34.104Z,82.30
2022-11-02T07:36:03.899Z,82.33
2022-11-02T07:38:31.670Z,82.16
2022-11-02T07:40:59.611Z,81.49
2022-11-02T07:43:29.585Z,81.04
2022-11-02T07:46:05.955Z,81.49
2022-11-02T07:48:35.746Z,81.46
2022-11-02T07:51:07.617Z,81.40
2022-11-02T07:53:35.592Z,82.46
2022-11-02T07:56:03.700Z,85.03
2022-11-02T07:58:33.116Z,85.96
2022-11-02T08:01:03.519Z,84.96
2022-11-02T08:03:31.313Z,84.69
2022-11-02T08:06:02.172Z,82.40
2022-11-02T08:08:30.095Z,83.17
2022-11-02T08:11:05.682Z,81.32
2022-11-02T08:13:35.354Z,79.08
2022-11-02T08:16:03.256Z,77.78
2022-11-02T08:18:31.580Z,76.09
2022-11-02T08:21:00.922Z,75.32
2022-11-02T08:23:28.682Z,74.66
2022-11-02T08:25:59.113Z,74.23
2022-11-02T08:28:31.020Z,75.22
2022-11-02T08:31:00.336Z,75.19
2022-11-02T08:33:30.464Z,74.91
2022-11-02T08:40:24.981Z,75.30
2022-11-02T08:42:56.999Z,74.00
2022-11-02T08:45:24.848Z,74.81
2022-11-02T08:47:53.925Z,74.47
2022-11-02T08:50:22.979Z,74.01
2022-11-02T08:52:50.831Z,74.89
2022-11-02T08:55:19.076Z,74.76
2022-11-02T08:57:47.692Z,74.13
2022-11-02T09:00:16.448Z,73.77
2022-11-02T09:02:45.139Z,73.42
2022-11-02T09:05:14.355Z,73.92
2022-11-02T09:07:42.311Z,73.38
2022-11-02T09:10:10.874Z,74.32
2022-11-02T09:12:38.857Z,74.08
2022-11-02T09:15:07.376Z,75.12
2022-11-02T09:17:35.075Z,73.22
2022-11-02T09:20:02.873Z,73.82
2022-11-02T09:22:31.960Z,73.77
2022-11-02T09:24:59.917Z,73.37
2022-11-02T09:27:27.690Z,73.52
2022-11-02T09:29:55.408Z,72.03
2022-11-02T09:32:23.215Z,73.01
2022-11-02T09:34:52.147Z,72.27
2022-11-02T09:37:20.064Z,72.41
2022-11-02T09:39:51.650Z,71.71
2022-11-02T09:42:24.007Z,71.53
2022-11-02T09:44:57.956Z,71.49
2022-11-02T09:50:22.022Z,72.85
2022-11-02T09:52:57.755Z,71.41
2022-11-02T09:55:33.210Z,71.27
2022-11-02T09:58:06.879Z,70.84
2022-11-02T10:00:40.901Z,70.29
2022-11-02T10:03:18.014Z,70.28
2022-11-02T10:05:51.257Z,68.36
2022-11-02T10:08:37.713Z,68.23
2022-11-02T10:11:20.565Z,66.81
2022-11-02T10:13:56.795Z,67.45
2022-11-02T10:16:32.244Z,66.80
2022-11-02T10:19:00.175Z,66.47
2022-11-02T10:21:33.611Z,67.13
2022-11-02T10:24:10.307Z,66.03
2022-11-02T10:26:43.523Z,65.63
2022-11-02T10:29:18.108Z,66.12
2022-11-02T10:31:46.652Z,66.38
2022-11-02T10:34:23.715Z,65.16
2022-11-02T10:37:02.060Z,64.45
2022-11-02T10:39:38.565Z,65.57
2022-11-02T10:42:36.576Z,66.52
2022-11-02T10:45:21.404Z,67.17
2022-11-02T10:48:02.196Z,67.03
2022-11-02T10:50:41.741Z,66.64
2022-11-02T10:53:39.665Z,65.63
2022-11-02T10:56:13.551Z,65.90
2022-11-02T10:58:46.962Z,65.92
2022-11-02T11:01:14.898Z,65.73
2022-11-02T11:03:59.873Z,64.24
2022-11-02T11:06:31.541Z,64.71
2022-11-02T11:09:07.362Z,65.38
2022-11-02T11:11:38.498Z,66.42
2022-11-02T11:19:53.217Z,66.09
2022-11-02T11:22:27.250Z,65.28
2022-11-02T11:25:17.073Z,64.57
2022-11-02T11:27:46.224Z,63.92
2022-11-02T11:30:54.131Z,64.80
2022-11-02T11:33:17.957Z,62.90
2022-11-02T11:35:49.917Z,61.42
2022-11-02T11:38:20.395Z,60.31
2022-11-02T11:40:53.678Z,60.42
2022-11-02T11:43:24.417Z,59.93
2022-11-02T11:46:05.765Z,57.32
2022-11-02T11:48:39.601Z,57.04
2022-11-02T11:51:32.239Z,58.42
2022-11-02T11:54:20.843Z,56.47
2022-11-02T11:56:49.811Z,56.18
2022-11-02T11:59:22.002Z,57.67
2022-11-02T12:01:54.536Z,58.68
2022-11-02T12:04:34.626Z,58.65
2022-11-02T12:07:20.507Z,63.11
2022-11-02T12:10:00.309Z,60.78
2022-11-02T12:12:40.167Z,60.79
2022-11-02T12:15:26.348Z,58.74
2022-11-02T12:18:09.161Z,58.33
2022-11-02T12:20:51.790Z,56.01
2022-11-02T12:23:33.225Z,52.09
2022-11-02T12:26:17.555Z,51.67
2022-11-02T12:29:00.913Z,52.73
2022-11-02T12:31:36.251Z,51.93
2022-11-02T12:34:41.233Z,49.69
2022-11-02T12:37:37.175Z,50.79
2022-11-02T12:40:21.925Z,48.59
2022-11-02T12:42:57.085Z,48.08
2022-11-02T12:45:42.298Z,48.66
2022-11-02T12:48:15.620Z,48.86
2022-11-02T12:50:54.695Z,51.29
2022-11-02T12:53:41.708Z,52.42
2022-11-02T12:56:14.823Z,54.46
2022-11-02T12:58:43.004Z,53.41
2022-11-02T13:01:18.454Z,53.88
2022-11-02T13:03:53.091Z,51.75
2022-11-02T13:06:26.728Z,52.15
2022-11-02T13:08:58.782Z,53.17
2022-11-02T13:11:33.324Z,53.30
2022-11-02T13:14:03.579Z,54.22
2022-11-02T13:16:40.655Z,52.67
2022-11-02T13:19:16.326Z,54.02
2022-11-02T13:21:50.530Z,54.65
2022-11-02T13:24:23.950Z,56.20
2022-11-02T13:26:57.429Z,57.23
2022-11-02T13:29:38.693Z,56.79
2022-11-02T13:32:15.481Z,57.32
2022-11-02T13:34:46.844Z,55.85
2022-11-02T13:37:22.301Z,56.17
2022-11-02T13:39:53.619Z,54.69
2022-11-02T13:42:50.850Z,57.07
2022-11-02T13:45:38.751Z,55.54
2022-11-02T13:48:24.874Z,56.97
2022-11-02T13:50:57.425Z,56.84
2022-11-02T13:53:31.834Z,57.42
2022-11-02T13:56:02.352Z,56.78
2022-11-02T13:58:35.010Z,57.38
2022-11-02T14:01:04.987Z,58.61
2022-11-02T14:03:42.315Z,59.13
2022-11-02T14:06:12.594Z,58.65
2022-11-02T14:08:48.300Z,59.08
2022-11-02T14:11:28.918Z,59.00
2022-11-02T14:14:16.256Z,57.98
2022-11-02T14:16:46.284Z,56.57
2022-11-02T14:19:21.895Z,58.11
2022-11-02T14:22:10.205Z,57.16
2022-11-02T14:25:14.614Z,57.28
2022-11-02T14:27:42.554Z,57.88
2022-11-02T14:30:46.365Z,57.20
2022-11-02T14:33:30.223Z,57.61
2022-11-02T14:36:01.487Z,56.40
2022-11-02T14:38:46.425Z,57.13
2022-11-02T14:41:38.676Z,57.01
2022-11-02T14:44:27.874Z,57.88
2022-11-02T14:46:58.973Z,58.58
2022-11-02T14:49:29.521Z,58.95
2022-11-02T14:52:04.515Z,56.95
2022-11-02T14:54:46.881Z,57.06
2022-11-02T14:57:24.770Z,58.99
2022-11-02T14:59:56.319Z,60.75
2022-11-02T15:02:29.821Z,60.71
2022-11-02T15:05:00.384Z,59.67
2022-11-02T15:07:35.731Z,60.34
2022-11-02T15:10:06.661Z,59.23
2022-11-02T15:12:40.844Z,63.05
2022-11-02T15:15:31.301Z,61.00
2022-11-02T15:18:22.692Z,63.64
2022-11-02T15:21:27.055Z,61.59
2022-11-02T15:24:17.417Z,63.40
2022-11-02T15:26:52.097Z,63.52
2022-11-02T15:29:34.355Z,63.18
2022-11-02T15:32:04.239Z,64.18
2022-11-02T15:34:37.078Z,65.29
2022-11-02T15:37:05.652Z,65.42
2022-11-02T15:39:34.063Z,67.43
2022-11-02T15:42:13.217Z,67.24
2022-11-02T15:45:46.808Z,66.88
2022-11-02T15:48:32.230Z,68.11
2022-11-02T15:51:09.832Z,68.16
2022-11-02T15:54:02.059Z,69.19
2022-11-02T15:56:43.662Z,69.57
2022-11-02T15:59:39.465Z,71.68
2022-11-02T16:02:21.144Z,72.50
2022-11-02T16:04:55.569Z,71.55
2022-11-02T16:07:33.214Z,71.56
2022-11-02T16:10:27.417Z,71.93
2022-11-02T16:12:59.900Z,72.10
2022-11-02T16:15:28.369Z,73.04
2022-11-02T16:18:01.514Z,72.91
2022-11-02T16:20:35.330Z,73.07
2022-11-02T16:23:05.001Z,73.94
2022-11-02T16:25:39.933Z,74.03
2022-11-02T16:28:20.541Z,74.38
2022-11-02T16:31:12.447Z,74.82
2022-11-02T16:33:48.148Z,74.60
2022-11-02T16:36:19.328Z,75.50
2022-11-02T16:38:49.891Z,75.08
2022-11-02T16:41:18.174Z,76.78
2022-11-02T16:43:51.127Z,78.28
2022-11-02T16:46:29.407Z,76.18
2022-11-02T16:49:14.962Z,76.70
2022-11-02T16:51:49.965Z,76.16
2022-11-02T16:54:24.811Z,76.16
2022-11-02T16:56:56.869Z,76.38
2022-11-02T16:59:25.492Z,75.74
2022-11-02T17:01:59.994Z,77.40
2022-11-02T17:04:31.954Z,79.95
2022-11-02T17:07:12.388Z,79.09
2022-11-02T17:09:40.846Z,79.23
2022-11-02T17:12:14.207Z,80.73
2022-11-02T17:14:44.181Z,82.12
2022-11-02T17:17:35.874Z,80.65
2022-11-02T17:20:18.122Z,79.11
2022-11-02T17:22:57.576Z,82.51
2022-11-02T17:25:27.627Z,82.04
2022-11-02T17:27:56.860Z,80.46
2022-11-02T17:30:44.772Z,80.04
2022-11-02T17:33:28.566Z,78.91
2022-11-02T17:36:04.980Z,79.93
2022-11-02T17:38:33.119Z,79.66
2022-11-02T17:41:01.772Z,79.16
2022-11-02T17:43:28.607Z,80.50
2022-11-02T17:45:59.412Z,81.49
2022-11-02T17:48:29.359Z,80.59
2022-11-02T17:51:00.579Z,80.32
2022-11-02T17:53:28.495Z,80.43
2022-11-02T17:55:56.585Z,83.42
2022-11-02T17:58:24.355Z,85.86
2022-11-02T18:00:54.011Z,84.76
2022-11-02T18:03:25.360Z,82.59
2022-11-02T18:05:59.870Z,82.72
2022-11-02T18:08:30.154Z,85.19
2022-11-02T18:10:58.052Z,83.50
2022-11-02T18:13:25.891Z,83.44
2022-11-02T18:15:53.660Z,84.26
2022-11-02T18:18:21.349Z,82.92
2022-11-02T18:20:49.284Z,81.98
2022-11-02T18:23:19.711Z,81.28
2022-11-02T18:25:49.045Z,81.72
2022-11-02T18:28:16.886Z,86.61
2022-11-02T18:30:45.044Z,86.09
2022-11-02T18:33:14.049Z,84.69
2022-11-02T18:35:43.247Z,86.02
2022-11-02T18:38:11.735Z,85.35
2022-11-02T18:40:39.879Z,84.08
2022-11-02T18:43:11.386Z,82.13
2022-11-02T18:45:39.106Z,85.02
2022-11-02T18:48:07.894Z,89.01
2022-11-02T18:50:35.874Z,88.95
2022-11-02T18:53:03.611Z,87.54
2022-11-02T18:55:31.308Z,85.25
2022-11-02T18:57:59.001Z,83.40
2022-11-02T19:00:28.036Z,83.91
2022-11-02T19:02:55.761Z,83.09
2022-11-02T19:05:37.413Z,81.75
2022-11-02T19:08:22.843Z,82.37
2022-11-02T19:10:50.591Z,84.26
2022-11-02T19:13:18.284Z,85.39
2022-11-02T19:15:47.370Z,85.51
2022-11-02T19:18:15.391Z,86.02
2022-11-02T19:20:43.457Z,86.61
2022-11-02T19:23:11.745Z,85.91
2022-11-02T19:25:39.493Z,86.20
2022-11-02T19:28:07.613Z,85.40
2022-11-02T19:30:38.395Z,84.77
2022-11-02T19:33:08.423Z,84.29
2022-11-02T19:35:36.335Z,84.08
2022-11-02T19:38:04.129Z,84.07
2022-11-02T19:40:31.822Z,84.39
2022-11-02T19:42:59.538Z,84.06
2022-11-02T19:45:27.520Z,84.20
2022-11-02T19:47:55.314Z,87.55
2022-11-02T19:50:24.354Z,86.63
2022-11-02T19:52:52.083Z,87.23
2022-11-02T19:55:22.687Z,84.87
2022-11-02T19:57:50.435Z,85.89
2022-11-02T20:00:18.671Z,85.03
2022-11-02T20:02:46.484Z,86.54
2022-11-02T20:05:14.588Z,85.09
2022-11-02T20:07:43.644Z,82.64
2022-11-02T20:10:11.422Z,80.96
2022-11-02T20:12:39.170Z,81.45
2022-11-02T20:15:10.790Z,84.43
2022-11-02T20:17:58.303Z,83.86
2022-11-02T20:20:26.719Z,83.06
2022-11-02T20:22:56.476Z,81.51
2022-11-02T20:25:25.674Z,80.39
2022-11-02T20:27:53.734Z,80.65
2022-11-02T20:30:22.405Z,80.73
2022-11-02T20:32:50.491Z,86.23
2022-11-02T20:35:22.711Z,84.93
2022-11-02T20:37:50.434Z,82.16
2022-11-02T20:40:19.535Z,81.20
2022-11-02T20:42:49.910Z,82.51
2022-11-02T20:45:17.831Z,80.55
2022-11-02T20:47:45.596Z,78.44
2022-11-02T20:50:16.627Z,78.04
2022-11-02T20:52:46.374Z,78.10
2022-11-02T20:55:14.142Z,79.14
2022-11-02T20:57:43.222Z,78.00
2022-11-02T21:00:13.183Z,77.30
2022-11-02T21:02:40.956Z,83.12
2022-11-02T21:05:09.500Z,83.75
2022-11-02T21:07:37.239Z,85.75
2022-11-02T21:10:05.518Z,84.17
2022-11-02T21:12:50.761Z,85.57
2022-11-02T21:15:22.201Z,87.55
2022-11-02T21:17:49.874Z,86.38
2022-11-02T21:20:33.728Z,86.90
2022-11-02T21:23:02.765Z,88.00
2022-11-02T21:25:31.730Z,90.52
2022-11-02T21:27:59.427Z,92.48
2022-11-02T21:30:30.898Z,89.40
2022-11-02T21:32:58.957Z,86.30
2022-11-02T21:35:26.790Z,90.47
2022-11-02T21:37:59.280Z,90.00
2022-11-02T21:40:30.120Z,86.22
2022-11-02T21:42:57.810Z,84.34
2022-11-02T21:45:26.459Z,81.58
2022-11-02T21:47:55.607Z,80.27
2022-11-02T21:50:23.809Z,80.94
2022-11-02T21:52:51.488Z,83.61
2022-11-02T21:55:19.213Z,86.71
2022-11-02T21:57:49.023Z,86.97
2022-11-02T22:00:17.182Z,85.30
2022-11-02T22:02:43.994Z,85.04
2022-11-02T22:05:33.555Z,83.58
2022-11-02T22:08:19.006Z,83.63
2022-11-02T22:10:46.792Z,82.25
2022-11-02T22:13:31.930Z,80.08
2022-11-02T22:15:59.698Z,81.46
2022-11-02T22:18:27.413Z,84.67
2022-11-02T22:20:57.936Z,84.12
2022-11-02T22:23:25.670Z,84.87
2022-11-02T22:25:58.788Z,86.14
2022-11-02T22:28:29.743Z,85.81
2022-11-02T22:30:57.475Z,86.10
2022-11-02T22:33:25.617Z,85.90
2022-11-02T22:35:53.490Z,85.18
2022-11-02T22:38:40.150Z,83.40
2022-11-02T22:41:07.942Z,83.68
2022-11-02T22:43:35.886Z,84.31
2022-11-02T22:46:05.060Z,84.15
2022-11-02T22:48:33.191Z,82.98
2022-11-02T22:51:00.956Z,82.28
2022-11-02T22:53:30.051Z,81.59
2022-11-02T22:55:59.447Z,81.30
2022-11-02T22:58:28.623Z,83.58
2022-11-02T23:00:56.451Z,84.97
2022-11-02T23:03:24.411Z,83.92
2022-11-02T23:05:52.571Z,83.35
2022-11-02T23:08:20.363Z,83.49
2022-11-02T23:11:12.757Z,83.43
2022-11-02T23:13:40.921Z,84.82
2022-11-02T23:16:24.376Z,85.69
2022-11-02T23:19:15.022Z,84.93
2022-11-02T23:21:44.854Z,86.29
2022-11-02T23:24:27.025Z,87.34
2022-11-02T23:26:57.123Z,88.37
2022-11-02T23:29:42.396Z,88.07
2022-11-02T23:32:27.585Z,88.85
2022-11-02T23:35:14.084Z,89.40
2022-11-02T23:37:45.738Z,87.07
2022-11-02T23:40:15.415Z,85.12
2022-11-02T23:42:44.625Z,83.14
2022-11-02T23:45:12.983Z,82.69
2022-11-02T23:47:59.871Z,81.87
2022-11-02T23:50:49.095Z,80.95
2022-11-02T23:53:36.543Z,81.04
2022-11-02T23:56:22.605Z,81.04
2022-11-02T23:59:06.380Z,81.89
